AGROMETEOROLOŠKI PORTAL
Vinorodna pokrajina

Temelj dobrega kmetovanja.

Pregled podatkov za lokacijo PODNANOS - ARSO, meteorološka postaja 158

Pregled senzorjev na lokaciji

ID Ime Zadnja
vrednost
Datum in čas
meritve
(lokalni čas)
Tip
senzorja
5986 Padavine (mm) 0 mm 20.4.2024 17:30 ARSO
5990 Relativna zračna vlaga (2 m) (% RH) 37 % RH 20.4.2024 17:30 ARSO
5987 Temperatura (2 m) (°C) 12,8 °C 20.4.2024 17:30 ARSO
5989 Smer vetra (2 m) (°) 147 ° 20.4.2024 17:30 ARSO
5988 Hitrost vetra (2 m) (km/h) 17 km/h 20.4.2024 17:30 ARSO

Pregled podatkov zadnjih 24 ur

Zap.
št.
Datum in čas
(lokalni čas)
PODNANOS - ARSO
Padavine Relativna
zračna
vlaga
(2
m)
Temperatura
(2
m)
Smer
vetra
(2
m)
Hitrost
vetra
(2
m)
1 20.4.2024 17:30 0 37 12,8 147 17
2 20.4.2024 17:00 0 37,3 12,8 163 14
3 20.4.2024 16:30
4 20.4.2024 16:00 0 43 13,6 165,5 9,3
5 20.4.2024 15:30 0 51,7 12,6 343 9,7
6 20.4.2024 15:00 0 43,7 11,8 321,4 14,7
7 20.4.2024 14:30 0 53 11 8 32,3
8 20.4.2024 14:00 0 42,7 14,5 312,7 11
9 20.4.2024 13:30 0 37 15,3 171,6 8
10 20.4.2024 13:00 0 38 14,9 172,3 14,3
11 20.4.2024 12:30 0 36,7 14,7 168,7 15
12 20.4.2024 12:00 0 34,3 14 116,1 10,3
13 20.4.2024 11:30 0 37,7 14 16,3 8,7
14 20.4.2024 11:00 0 38,3 14,7 270,5 6
15 20.4.2024 10:30 0 42 14,4 17 5,3
16 20.4.2024 10:00 0 43 13,8 69,2 6
17 20.4.2024 09:30 0 46,3 12,3 123 6,3
18 20.4.2024 09:00 0 62,3 9,5 17,7 2,7
19 20.4.2024 08:30 0 61,7 9 98,8 4
20 20.4.2024 08:00 0 66 7,1 114,6 3,7
21 20.4.2024 07:30 0 66,3 6,5 111 10
22 20.4.2024 07:00 0 68,7 5,7 155 14,7
23 20.4.2024 06:30 0 70,7 5 154 13,3
24 20.4.2024 06:00 0 72,7 4,7 156 11,7
25 20.4.2024 05:30 0 75,7 4,1 160,7 13,7
26 20.4.2024 05:00 0 77 4 154 14
27 20.4.2024 04:30 0 82,7 3,3 157 11,7
28 20.4.2024 04:00 0 77,7 4,2 146,3 8,7
29 20.4.2024 03:30 0 79 4,5 150,7 13,3
30 20.4.2024 03:00 0 83 4 159,3 17,3
31 20.4.2024 02:30 0 83,7 3,8 150,7 10
32 20.4.2024 02:00 0 81 4,4 150,7 11
33 20.4.2024 01:30 0 81 4,5 152,3 13
34 20.4.2024 01:00 0 79,3 4,7 156 13,7
35 20.4.2024 00:30 0 79,3 4,8 156,7 14,7
36 20.4.2024 00:00 0 79 4,8 157,7 16
37 19.4.2024 23:30 0 80 4,6 163,3 12,3
38 19.4.2024 23:00 0 73,7 5,6 156,3 13,7
39 19.4.2024 22:30 0 71,7 5,7 156,7 14,3
40 19.4.2024 22:00 0 66,3 6,3 156,3 17
41 19.4.2024 21:30 0 67 6,1 159,3 16,3
42 19.4.2024 21:00 0 67 6,4 156 13,3
43 19.4.2024 20:30 0 64 7,2 159 12